»·PEaware :: N815DD KFOT-KRNO

N815DD :: KFOT-KRNO

FLIGHT INFORMATION

Flight Status: Arrived
Operator: Privately registered:
United States
More flights under this callsign
Pilot: Alan J. (5709)
Aircraft: GATES LEARJET LEARJET 35/36
(LJ35)
More flights by this aircraft type
Origin: KFOT Rohnerville
United States
Destination: KRNO Reno/Tahoe Intl
United States
More flights between these airports :: More routes between these airports
Route: RBL FMG
File this flight plan on PilotEdge
Remarks:
Altitude:
(Current/Filed)
33,000ft
Speed:
(Current/Filed)
450kts
Departed: 04-Feb-17 09:11 AM
Arrived: 04-Feb-17 09:52 AM
Distance/Time
Traveled:
210nm/0:41
Distance/Time
To Go:
Arrived

Flight Plot

Page will automatically refresh every two minutes.

Flight plan parsing failed; only flown route is shown


Map Options




Map Legend


Flown Route
Filed Route
Departure Airport
Arrival Airport
Navaid (VOR, NDB)
Fix

Horizontal Profiles

Position Reports

Time Latitude Longitude Heading Altitude Ground
Speed
04-Feb-17 08:47 40.552132 -124.126857 37 395ft 0kts
04-Feb-17 08:48 40.552132 -124.126857 37 395ft 0kts
04-Feb-17 08:49 40.552132 -124.126857 37 395ft 0kts
04-Feb-17 08:50 40.552132 -124.126857 37 395ft 0kts
04-Feb-17 08:51 40.552132 -124.126857 37 395ft 0kts
04-Feb-17 08:52 40.552132 -124.126857 37 395ft 0kts
04-Feb-17 08:53 40.552132 -124.126857 37 395ft 0kts
04-Feb-17 08:54 40.552132 -124.126857 37 395ft 0kts
04-Feb-17 08:55 40.552132 -124.126857 37 395ft 0kts
04-Feb-17 08:56 40.552132 -124.126857 37 395ft 0kts
04-Feb-17 08:57 40.552132 -124.126857 37 395ft 0kts
04-Feb-17 08:58 40.552142 -124.126847 37 395ft 0kts
04-Feb-17 08:59 40.552143 -124.126846 37 395ft 0kts
04-Feb-17 09:00 40.552144 -124.126845 37 395ft 0kts
04-Feb-17 09:01 40.552256 -124.127003 233 395ft 1kts
04-Feb-17 09:02 40.552070 -124.127092 194 395ft 0kts
04-Feb-17 09:03 40.551995 -124.127173 230 395ft 1kts
04-Feb-17 09:04 40.552225 -124.128435 307 395ft 6kts
04-Feb-17 09:05 40.553830 -124.131179 307 395ft 12kts
04-Feb-17 09:06 40.556661 -124.136021 307 395ft 20kts
04-Feb-17 09:07 40.557567 -124.137838 251 395ft 0kts
04-Feb-17 09:08 40.557566 -124.137839 251 395ft 0kts
04-Feb-17 09:09 40.557471 -124.137973 212 395ft 1kts
04-Feb-17 09:10 40.556955 -124.137826 126 395ft 1kts
04-Feb-17 09:11 40.537482 -124.104899 131 2236ft 174kts
04-Feb-17 09:12 40.492424 -124.046210 163 4948ft 226kts
04-Feb-17 09:13 40.437655 -124.021168 163 6503ft 219kts
04-Feb-17 09:14 40.373886 -123.993423 164 9137ft 262kts
04-Feb-17 09:15 40.325106 -123.910903 103 10901ft 352kts
04-Feb-17 09:16 40.307893 -123.780509 105 13383ft 372kts
04-Feb-17 09:17 40.287722 -123.629594 103 15595ft 460kts
04-Feb-17 09:18 40.268273 -123.479604 103 18655ft 442kts
04-Feb-17 09:19 40.246943 -123.317577 103 20139ft 468kts
04-Feb-17 09:20 40.224530 -123.148518 103 21787ft 478kts
04-Feb-17 09:21 40.208534 -123.029129 103 22724ft 485kts
04-Feb-17 09:22 40.184845 -122.854109 104 23815ft 493kts
04-Feb-17 09:23 40.160938 -122.679362 104 25701ft 483kts
04-Feb-17 09:24 40.137096 -122.507464 104 27149ft 485kts
04-Feb-17 09:25 40.112581 -122.332612 104 28252ft 491kts
04-Feb-17 09:26 40.085370 -122.157809 110 29351ft 490kts
04-Feb-17 09:27 40.047418 -121.986247 110 30102ft 500kts
04-Feb-17 09:28 40.010657 -121.813235 110 28148ft 488kts
04-Feb-17 09:29 39.974822 -121.644901 110 25651ft 476kts
04-Feb-17 09:30 39.939674 -121.480643 110 24168ft 468kts
04-Feb-17 09:31 39.904123 -121.315655 109 24158ft 478kts
04-Feb-17 09:32 39.867750 -121.148070 109 24161ft 484kts
04-Feb-17 09:33 39.832733 -120.987708 110 23339ft 437kts
04-Feb-17 09:34 39.799833 -120.838623 110 20839ft 422kts
04-Feb-17 09:35 39.767651 -120.693608 110 18334ft 410kts
04-Feb-17 09:36 39.736972 -120.555929 110 17069ft 370kts
04-Feb-17 09:37 39.708357 -120.429028 110 17074ft 387kts
04-Feb-17 09:38 39.676196 -120.286788 110 17068ft 431kts
04-Feb-17 09:39 39.641682 -120.132185 109 17062ft 452kts
04-Feb-17 09:40 39.608089 -119.982564 115 17013ft 414kts
04-Feb-17 09:41 39.523492 -119.899409 168 15527ft 392kts
04-Feb-17 09:42 39.417656 -119.865124 172 14058ft 378kts
04-Feb-17 09:43 39.324836 -119.847173 182 13354ft 318kts
04-Feb-17 09:44 39.245409 -119.839856 183 13024ft 245kts
04-Feb-17 09:45 39.188704 -119.808289 118 13052ft 264kts
04-Feb-17 09:46 39.212407 -119.721342 37 12229ft 294kts
04-Feb-17 09:47 39.274818 -119.714743 306 11772ft 219kts
04-Feb-17 09:48 39.323188 -119.765129 344 10526ft 244kts
04-Feb-17 09:49 39.386381 -119.769185 359 7760ft 209kts
04-Feb-17 09:50 39.440440 -119.769548 0 5222ft 168kts
04-Feb-17 09:51 39.477329 -119.769264 2 4578ft 117kts
04-Feb-17 09:52 39.502935 -119.769261 1 4418ft 39kts
04-Feb-17 09:53 39.508108 -119.769243 359 4418ft 20kts
04-Feb-17 09:54 39.510630 -119.768422 90 4418ft 1kts
04-Feb-17 09:55 39.510631 -119.766983 88 4418ft 9kts
04-Feb-17 09:56 39.510052 -119.765695 180 4418ft 5kts
04-Feb-17 09:57 39.507997 -119.765710 180 4418ft 8kts
04-Feb-17 09:58 39.507198 -119.764892 90 4418ft 3kts
04-Feb-17 09:59 39.507200 -119.764466 89 4418ft 0kts
04-Feb-17 10:00 39.507200 -119.764466 89 4418ft 0kts

Navigation Log

Ident Type
Flight plan parsing failed, navigation log unavailable